createdAt,value
2023-03-22T00:00:21.379Z,4.90
2023-03-22T00:01:10.795Z,4.80
2023-03-22T00:01:58.944Z,5.47
2023-03-22T00:02:46.088Z,5.07
2023-03-22T00:03:33.177Z,5.40
2023-03-22T00:04:20.270Z,4.87
2023-03-22T00:05:07.698Z,5.20
2023-03-22T00:05:58.658Z,5.35
2023-03-22T00:06:45.909Z,5.30
2023-03-22T00:07:32.973Z,4.80
2023-03-22T00:08:19.958Z,5.25
2023-03-22T00:09:07.037Z,5.37
2023-03-22T00:09:54.039Z,5.28
2023-03-22T00:10:42.068Z,5.12
2023-03-22T00:11:29.123Z,5.43
2023-03-22T00:12:16.222Z,5.00
2023-03-22T00:13:03.381Z,5.28
2023-03-22T00:13:52.811Z,5.07
2023-03-22T00:14:39.756Z,4.97
2023-03-22T00:15:29.804Z,5.00
2023-03-22T00:16:17.735Z,5.28
2023-03-22T00:17:04.755Z,4.85
2023-03-22T00:17:52.093Z,5.00
2023-03-22T00:18:39.102Z,5.43
2023-03-22T00:19:26.871Z,5.30
2023-03-22T00:20:13.977Z,5.60
2023-03-22T00:21:01.241Z,5.10
2023-03-22T00:21:48.257Z,5.80
2023-03-22T00:22:35.288Z,4.72
2023-03-22T00:23:23.430Z,5.00
2023-03-22T00:24:10.473Z,5.15
2023-03-22T00:24:57.499Z,5.00
2023-03-22T00:25:45.469Z,4.90
2023-03-22T00:26:32.490Z,5.40
2023-03-22T00:27:19.346Z,5.20
2023-03-22T00:28:06.368Z,4.87
2023-03-22T00:28:53.290Z,4.97
2023-03-22T00:29:40.293Z,4.95
2023-03-22T00:30:27.228Z,4.97
2023-03-22T00:31:14.338Z,5.00
2023-03-22T00:32:01.469Z,4.72
2023-03-22T00:32:48.448Z,4.97
2023-03-22T00:33:36.567Z,4.87
2023-03-22T00:34:23.721Z,5.28
2023-03-22T00:35:12.014Z,5.37
2023-03-22T00:36:01.476Z,5.10
2023-03-22T00:36:48.754Z,4.75
2023-03-22T00:37:38.886Z,4.72
2023-03-22T00:38:41.257Z,5.40
2023-03-22T00:39:28.874Z,5.03
2023-03-22T00:40:18.147Z,4.70
2023-03-22T00:41:25.608Z,5.25
2023-03-22T00:42:12.566Z,4.80
2023-03-22T00:43:00.011Z,4.72
2023-03-22T00:43:47.743Z,4.95
2023-03-22T00:44:34.851Z,4.82
2023-03-22T00:45:21.841Z,4.72
2023-03-22T00:46:09.876Z,4.60
2023-03-22T00:46:56.970Z,5.15
2023-03-22T00:47:43.998Z,5.22
2023-03-22T00:48:31.544Z,4.93
2023-03-22T00:49:19.201Z,4.82
2023-03-22T00:50:07.533Z,5.00
2023-03-22T00:50:54.562Z,5.18
2023-03-22T00:51:41.485Z,4.80
2023-03-22T00:52:29.854Z,5.35
2023-03-22T00:53:17.150Z,4.95
2023-03-22T00:54:04.162Z,4.90
2023-03-22T00:54:51.652Z,4.65
2023-03-22T00:55:38.651Z,5.18
2023-03-22T00:56:29.173Z,4.90
2023-03-22T00:57:16.590Z,4.72
2023-03-22T00:58:03.681Z,4.85
2023-03-22T00:58:50.791Z,4.90
2023-03-22T00:59:39.088Z,4.47
2023-03-22T01:00:26.364Z,5.55
2023-03-22T01:01:16.592Z,4.60
2023-03-22T01:02:04.492Z,4.62
2023-03-22T01:02:53.511Z,4.60
2023-03-22T01:03:41.640Z,4.78
2023-03-22T01:04:28.883Z,4.40
2023-03-22T01:05:16.292Z,5.00
2023-03-22T01:06:03.890Z,4.68
2023-03-22T01:06:50.860Z,4.65
2023-03-22T01:07:39.842Z,5.05
2023-03-22T01:08:33.244Z,4.60
2023-03-22T01:09:24.185Z,4.40
2023-03-22T01:10:12.401Z,5.20
2023-03-22T01:10:59.822Z,4.78
2023-03-22T01:11:46.852Z,5.18
2023-03-22T01:12:33.889Z,4.37
2023-03-22T01:13:20.946Z,4.70
2023-03-22T01:14:09.976Z,4.90
2023-03-22T01:14:57.193Z,4.60
2023-03-22T01:15:44.229Z,4.60
2023-03-22T01:16:31.250Z,4.93
2023-03-22T01:17:18.352Z,4.93
2023-03-22T01:18:05.803Z,4.90
2023-03-22T01:18:52.797Z,5.03
2023-03-22T01:19:40.126Z,4.80
2023-03-22T01:20:27.860Z,5.20
2023-03-22T01:21:14.872Z,4.40
2023-03-22T01:22:02.516Z,4.62
2023-03-22T01:22:49.575Z,4.95
2023-03-22T01:23:37.122Z,4.75
2023-03-22T01:24:24.508Z,5.60
2023-03-22T01:25:11.618Z,4.90
2023-03-22T01:25:58.688Z,5.12
2023-03-22T01:26:45.938Z,4.65
2023-03-22T01:27:32.921Z,5.05
2023-03-22T01:28:19.966Z,4.85
2023-03-22T01:29:06.978Z,4.90
2023-03-22T01:29:53.947Z,4.90
2023-03-22T01:30:41.676Z,4.70
2023-03-22T01:31:28.993Z,4.57
2023-03-22T01:32:16.114Z,4.50
2023-03-22T01:33:03.106Z,5.00
2023-03-22T01:33:50.177Z,4.97
2023-03-22T01:34:37.165Z,4.68
2023-03-22T01:35:24.473Z,5.10
2023-03-22T01:36:11.738Z,4.90
2023-03-22T01:36:58.726Z,5.03
2023-03-22T01:37:45.949Z,4.62
2023-03-22T01:38:33.009Z,4.95
2023-03-22T01:39:20.060Z,4.75
2023-03-22T01:40:07.677Z,4.60
2023-03-22T01:40:54.796Z,4.65
2023-03-22T01:41:41.840Z,4.93
2023-03-22T01:42:28.931Z,4.87
2023-03-22T01:43:17.425Z,4.93
2023-03-22T01:44:18.380Z,4.50
2023-03-22T01:45:14.074Z,4.80
2023-03-22T01:46:01.184Z,5.15
2023-03-22T01:46:49.844Z,5.18
2023-03-22T01:47:37.834Z,5.28
2023-03-22T01:48:37.479Z,4.75
2023-03-22T01:49:32.269Z,5.05
2023-03-22T01:50:20.064Z,5.00
2023-03-22T01:51:13.747Z,5.20
2023-03-22T01:52:12.091Z,5.30
2023-03-22T01:52:59.855Z,5.22
2023-03-22T01:53:49.523Z,5.05
2023-03-22T01:54:45.069Z,5.20
2023-03-22T01:55:33.552Z,5.55
2023-03-22T01:56:23.203Z,5.45
2023-03-22T01:57:10.263Z,5.35
2023-03-22T01:57:57.219Z,5.47
2023-03-22T01:58:44.123Z,5.10
2023-03-22T01:59:31.435Z,5.20
2023-03-22T02:00:19.344Z,5.68
2023-03-22T02:01:08.527Z,6.15
2023-03-22T02:01:56.000Z,5.43
2023-03-22T02:02:44.462Z,5.72
2023-03-22T02:03:57.781Z,5.47
2023-03-22T02:04:46.322Z,5.40
2023-03-22T02:05:35.129Z,5.68
2023-03-22T02:06:22.426Z,5.40
2023-03-22T02:07:15.872Z,5.97
2023-03-22T02:08:04.164Z,5.75
2023-03-22T02:08:53.252Z,5.43
2023-03-22T02:09:41.695Z,5.75
2023-03-22T02:10:28.992Z,5.57
2023-03-22T02:11:28.342Z,5.60
2023-03-22T02:12:20.800Z,5.72
2023-03-22T02:13:39.179Z,5.43
2023-03-22T02:15:03.921Z,5.45
2023-03-22T02:16:16.118Z,5.18
2023-03-22T02:17:30.322Z,5.30
2023-03-22T02:18:22.377Z,5.70
2023-03-22T02:19:31.172Z,5.78
2023-03-22T02:20:33.242Z,5.90
2023-03-22T02:21:36.243Z,5.60
2023-03-22T02:22:58.540Z,5.97
2023-03-22T02:24:24.973Z,5.25
2023-03-22T02:25:46.129Z,5.43
2023-03-22T02:26:59.647Z,5.43
2023-03-22T02:28:04.630Z,5.25
2023-03-22T02:29:22.782Z,5.40
2023-03-22T02:30:50.764Z,5.28
2023-03-22T02:32:25.894Z,4.95
2023-03-22T02:33:27.526Z,5.32
2023-03-22T02:34:36.122Z,5.40
2023-03-22T02:35:54.221Z,6.00
2023-03-22T02:36:47.519Z,5.15
2023-03-22T02:38:12.328Z,5.45
2023-03-22T02:39:17.980Z,5.65
2023-03-22T02:40:05.852Z,5.30
2023-03-22T02:41:12.522Z,5.50
2023-03-22T02:42:41.414Z,5.80
2023-03-22T02:43:39.025Z,5.97
2023-03-22T02:45:01.441Z,6.03
2023-03-22T02:45:54.711Z,5.82
2023-03-22T02:46:52.008Z,5.78
2023-03-22T02:47:57.034Z,6.18
2023-03-22T02:48:54.671Z,6.10
2023-03-22T02:49:47.747Z,5.65
2023-03-22T02:50:46.789Z,7.85
2023-03-22T02:51:41.874Z,6.35
2023-03-22T02:52:33.464Z,6.30
2023-03-22T02:53:23.475Z,6.32
2023-03-22T02:54:18.680Z,5.95
2023-03-22T02:55:12.860Z,6.47
2023-03-22T02:56:02.864Z,6.40
2023-03-22T02:57:19.461Z,7.07
2023-03-22T02:58:47.330Z,6.22
2023-03-22T02:59:38.420Z,5.87
2023-03-22T03:00:27.346Z,6.22
2023-03-22T03:01:32.829Z,6.00
2023-03-22T03:02:21.146Z,6.35
2023-03-22T03:03:12.076Z,5.93
2023-03-22T03:04:01.787Z,6.60
2023-03-22T03:04:50.337Z,6.30
2023-03-22T03:05:40.582Z,6.40
2023-03-22T03:06:31.318Z,6.18
2023-03-22T03:07:23.234Z,6.75
2023-03-22T03:08:11.488Z,6.60
2023-03-22T03:09:02.853Z,6.20
2023-03-22T03:09:50.849Z,6.72
2023-03-22T03:10:39.746Z,6.57
2023-03-22T03:11:26.830Z,6.45
2023-03-22T03:12:16.710Z,7.25
2023-03-22T03:13:03.888Z,6.37
2023-03-22T03:13:51.491Z,6.05
2023-03-22T03:14:38.478Z,6.20
2023-03-22T03:15:26.212Z,6.87
2023-03-22T03:16:17.862Z,6.50
2023-03-22T03:17:10.790Z,6.50
2023-03-22T03:18:27.711Z,6.18
2023-03-22T03:19:29.951Z,6.78
2023-03-22T03:20:35.619Z,6.90
2023-03-22T03:21:54.356Z,6.82
2023-03-22T03:22:53.842Z,6.97
2023-03-22T03:23:53.310Z,6.30
2023-03-22T03:24:48.628Z,6.85
2023-03-22T03:25:43.643Z,6.70
2023-03-22T03:26:55.823Z,6.50
2023-03-22T03:28:13.119Z,6.65
2023-03-22T03:29:05.626Z,6.65
2023-03-22T03:30:05.701Z,6.35
2023-03-22T03:31:08.421Z,6.60
2023-03-22T03:32:05.512Z,6.80
2023-03-22T03:33:05.321Z,6.40
2023-03-22T03:33:58.966Z,6.47
2023-03-22T03:34:58.122Z,6.22
2023-03-22T03:35:50.174Z,6.53
2023-03-22T03:36:41.047Z,6.22
2023-03-22T03:37:34.270Z,6.53
2023-03-22T03:38:27.458Z,6.80
2023-03-22T03:39:16.314Z,6.95
2023-03-22T03:40:11.409Z,6.37
2023-03-22T03:41:14.380Z,6.53
2023-03-22T03:42:02.321Z,6.22
2023-03-22T03:42:52.059Z,6.25
2023-03-22T03:43:39.663Z,6.20
2023-03-22T03:44:27.316Z,6.78
2023-03-22T03:45:16.032Z,6.87
2023-03-22T03:46:03.298Z,6.40
2023-03-22T03:46:51.459Z,7.72
2023-03-22T03:47:38.552Z,6.30
2023-03-22T03:48:29.052Z,6.47
2023-03-22T03:49:17.234Z,6.70
2023-03-22T03:50:08.484Z,6.07
2023-03-22T03:50:56.912Z,7.05
2023-03-22T03:51:55.351Z,6.28
2023-03-22T03:52:42.930Z,6.80
2023-03-22T03:53:30.772Z,6.37
2023-03-22T03:54:18.221Z,6.50
2023-03-22T03:55:05.571Z,6.37
2023-03-22T03:55:52.558Z,6.30
2023-03-22T03:56:39.547Z,6.32
2023-03-22T03:57:26.511Z,6.15
2023-03-22T03:58:13.451Z,7.12
2023-03-22T03:59:00.662Z,6.30
2023-03-22T03:59:47.702Z,6.45
2023-03-22T04:00:34.703Z,6.55
2023-03-22T04:01:21.718Z,6.37
2023-03-22T04:02:08.968Z,6.75
2023-03-22T04:02:56.117Z,6.07
2023-03-22T04:03:43.124Z,6.55
2023-03-22T04:04:30.330Z,6.30
2023-03-22T04:05:17.396Z,6.25
2023-03-22T04:06:04.473Z,6.12
2023-03-22T04:06:52.174Z,6.47
2023-03-22T04:07:39.770Z,6.97
2023-03-22T04:08:27.319Z,6.37
2023-03-22T04:09:14.361Z,6.07
2023-03-22T04:10:01.397Z,6.60
2023-03-22T04:10:52.486Z,6.57
2023-03-22T04:11:39.448Z,6.65
2023-03-22T04:12:26.483Z,5.95
2023-03-22T04:13:13.513Z,5.90
2023-03-22T04:14:00.503Z,6.65
2023-03-22T04:14:47.511Z,6.22
2023-03-22T04:15:34.483Z,6.47
2023-03-22T04:16:21.559Z,6.10
2023-03-22T04:17:09.782Z,6.60
2023-03-22T04:17:57.310Z,6.37
2023-03-22T04:18:44.536Z,6.57
2023-03-22T04:19:31.632Z,6.25
2023-03-22T04:20:19.769Z,6.35
2023-03-22T04:21:07.267Z,6.53
2023-03-22T04:21:54.688Z,6.50
2023-03-22T04:22:42.553Z,6.78
2023-03-22T04:23:29.612Z,6.40
2023-03-22T04:24:16.612Z,6.32
2023-03-22T04:25:03.924Z,6.20
2023-03-22T04:25:50.874Z,6.50
2023-03-22T04:26:38.122Z,6.35
2023-03-22T04:27:25.091Z,6.12
2023-03-22T04:28:13.912Z,7.07
2023-03-22T04:29:03.217Z,6.53
2023-03-22T04:29:51.325Z,6.65
2023-03-22T04:30:39.184Z,6.53
2023-03-22T04:31:26.562Z,7.00
2023-03-22T04:32:13.594Z,6.65
2023-03-22T04:33:01.563Z,6.93
2023-03-22T04:33:50.008Z,6.93
2023-03-22T04:34:37.059Z,6.50
2023-03-22T04:35:24.808Z,6.68
2023-03-22T04:36:16.292Z,6.68
2023-03-22T04:37:03.353Z,6.30
2023-03-22T04:37:51.917Z,6.90
2023-03-22T04:38:39.780Z,6.43
2023-03-22T04:39:26.892Z,6.68
2023-03-22T04:40:17.448Z,6.57
2023-03-22T04:41:52.654Z,6.22
2023-03-22T04:42:39.651Z,5.90
2023-03-22T04:43:27.651Z,6.40
2023-03-22T04:44:14.740Z,6.22
2023-03-22T04:45:04.166Z,7.22
2023-03-22T04:45:51.119Z,6.70
2023-03-22T04:46:38.660Z,6.25
2023-03-22T04:47:25.783Z,7.05
2023-03-22T04:48:12.832Z,6.72
2023-03-22T04:49:00.161Z,6.37
2023-03-22T04:49:47.174Z,6.40
2023-03-22T04:50:34.082Z,6.47
2023-03-22T04:51:21.178Z,6.22
2023-03-22T04:52:08.390Z,6.25
2023-03-22T04:52:55.550Z,6.90
2023-03-22T04:53:42.631Z,6.70
2023-03-22T04:54:29.614Z,6.60
2023-03-22T04:55:16.813Z,6.62
2023-03-22T04:56:05.860Z,6.60
2023-03-22T04:56:53.185Z,6.32
2023-03-22T04:57:40.149Z,6.32
2023-03-22T04:58:27.514Z,6.80
2023-03-22T04:59:14.962Z,6.80
2023-03-22T05:00:01.953Z,6.90
2023-03-22T05:00:48.991Z,6.57
2023-03-22T05:01:36.186Z,6.50
2023-03-22T05:02:23.182Z,6.57
2023-03-22T05:03:10.617Z,5.97
2023-03-22T05:03:57.647Z,6.37
2023-03-22T05:04:45.082Z,6.28
2023-03-22T05:05:32.240Z,6.57
2023-03-22T05:06:19.204Z,6.15
2023-03-22T05:07:06.362Z,6.47
2023-03-22T05:07:53.351Z,6.40
2023-03-22T05:08:40.571Z,5.87
2023-03-22T05:09:27.602Z,5.97
2023-03-22T05:10:14.791Z,7.00
2023-03-22T05:11:07.783Z,6.72
2023-03-22T05:11:54.714Z,6.25
2023-03-22T05:12:41.700Z,6.25
2023-03-22T05:13:28.632Z,6.00
2023-03-22T05:14:15.874Z,6.07
2023-03-22T05:15:04.489Z,6.35
2023-03-22T05:15:52.306Z,6.45
2023-03-22T05:16:42.079Z,6.72
2023-03-22T05:17:29.050Z,6.10
2023-03-22T05:18:16.911Z,6.15
2023-03-22T05:19:04.160Z,6.32
2023-03-22T05:19:52.113Z,5.65
2023-03-22T05:20:39.413Z,6.12
2023-03-22T05:21:29.984Z,6.55
2023-03-22T05:22:17.471Z,6.12
2023-03-22T05:23:05.380Z,6.47
2023-03-22T05:23:52.421Z,5.87
2023-03-22T05:24:39.453Z,6.32
2023-03-22T05:25:26.456Z,6.20
2023-03-22T05:26:16.269Z,5.80
2023-03-22T05:27:04.027Z,6.05
2023-03-22T05:27:54.437Z,6.35
2023-03-22T05:28:41.730Z,5.95
2023-03-22T05:29:29.109Z,6.50
2023-03-22T05:30:16.977Z,6.30
2023-03-22T05:31:05.834Z,6.03
2023-03-22T05:31:52.958Z,6.05
2023-03-22T05:32:43.369Z,6.03
2023-03-22T05:33:30.403Z,6.37
2023-03-22T05:34:17.628Z,6.18
2023-03-22T05:35:05.604Z,6.20
2023-03-22T05:35:52.760Z,6.32
2023-03-22T05:36:39.989Z,6.28
2023-03-22T05:37:26.971Z,5.82
2023-03-22T05:38:13.960Z,5.97
2023-03-22T05:39:00.842Z,6.18
2023-03-22T05:39:47.956Z,6.28
2023-03-22T05:40:34.969Z,6.07
2023-03-22T05:41:22.274Z,6.28
2023-03-22T05:42:09.254Z,6.22
2023-03-22T05:42:56.333Z,5.45
2023-03-22T05:43:43.314Z,5.80
2023-03-22T05:44:30.515Z,5.80
2023-03-22T05:45:17.893Z,5.80
2023-03-22T05:46:06.824Z,5.32
2023-03-22T05:46:53.882Z,5.85
2023-03-22T05:47:41.891Z,6.00
2023-03-22T05:48:28.944Z,6.45
2023-03-22T05:49:16.277Z,5.97
2023-03-22T05:50:03.417Z,6.07
2023-03-22T05:50:50.390Z,6.20
2023-03-22T05:51:41.873Z,6.32
2023-03-22T05:52:29.059Z,5.85
2023-03-22T05:53:16.364Z,6.30
2023-03-22T05:54:03.295Z,5.68
2023-03-22T05:54:50.260Z,5.72
2023-03-22T05:55:37.268Z,6.10
2023-03-22T05:56:24.680Z,5.80
2023-03-22T05:57:11.758Z,5.65
2023-03-22T05:57:59.979Z,5.78
2023-03-22T05:58:47.165Z,5.53
2023-03-22T05:59:34.334Z,5.90
2023-03-22T06:00:22.079Z,5.85
2023-03-22T06:01:11.852Z,6.53
2023-03-22T06:01:58.904Z,6.00
2023-03-22T06:02:48.088Z,5.95
2023-03-22T06:03:35.244Z,5.50
2023-03-22T06:04:22.487Z,5.70
2023-03-22T06:05:11.430Z,5.68
2023-03-22T06:05:58.407Z,6.03
2023-03-22T06:06:45.379Z,5.40
2023-03-22T06:07:32.329Z,6.07
2023-03-22T06:08:19.236Z,5.40
2023-03-22T06:09:16.376Z,5.80
2023-03-22T06:10:04.829Z,5.72
2023-03-22T06:10:52.628Z,5.30
2023-03-22T06:11:39.551Z,5.20
2023-03-22T06:12:29.540Z,5.93
2023-03-22T06:13:18.148Z,5.50
2023-03-22T06:14:05.174Z,6.15
2023-03-22T06:14:52.676Z,5.80
2023-03-22T06:15:39.658Z,5.62
2023-03-22T06:16:26.859Z,5.65
2023-03-22T06:17:13.887Z,5.65
2023-03-22T06:18:00.967Z,5.43
2023-03-22T06:18:48.064Z,5.90
2023-03-22T06:19:35.055Z,5.87
2023-03-22T06:20:22.079Z,5.87
2023-03-22T06:21:09.102Z,5.90
2023-03-22T06:21:56.131Z,5.65
2023-03-22T06:22:43.170Z,6.15
2023-03-22T06:23:30.143Z,6.57
2023-03-22T06:24:17.215Z,6.07
2023-03-22T06:25:44.525Z,6.00
2023-03-22T06:26:31.481Z,5.57
2023-03-22T06:27:18.437Z,5.82
2023-03-22T06:28:07.552Z,5.87
2023-03-22T06:28:55.510Z,5.93
2023-03-22T06:29:42.446Z,5.50
2023-03-22T06:30:29.575Z,5.40
2023-03-22T06:31:16.519Z,5.37
2023-03-22T06:32:04.002Z,6.18
2023-03-22T06:32:50.903Z,5.12
2023-03-22T06:33:37.804Z,5.68
2023-03-22T06:34:24.666Z,5.57
2023-03-22T06:35:11.605Z,5.62
2023-03-22T06:35:59.944Z,5.00
2023-03-22T06:36:47.040Z,5.62
2023-03-22T06:37:33.880Z,5.87
2023-03-22T06:38:20.802Z,6.10
2023-03-22T06:39:08.193Z,5.45
2023-03-22T06:39:55.078Z,5.85
2023-03-22T06:40:42.229Z,5.70
2023-03-22T06:41:29.311Z,5.65
2023-03-22T06:42:16.409Z,5.70
2023-03-22T06:43:06.974Z,5.00
2023-03-22T06:43:53.908Z,5.03
2023-03-22T06:44:44.066Z,5.20
2023-03-22T06:45:33.605Z,5.75
2023-03-22T06:46:22.743Z,5.72
2023-03-22T06:47:09.809Z,5.68
2023-03-22T06:47:58.747Z,5.65
2023-03-22T06:48:45.763Z,5.35
2023-03-22T06:49:32.628Z,5.32
2023-03-22T06:50:19.481Z,5.15
2023-03-22T06:51:06.811Z,5.43
2023-03-22T06:51:54.107Z,5.50
2023-03-22T06:52:40.972Z,5.22
2023-03-22T06:53:27.928Z,5.50
2023-03-22T06:54:16.246Z,5.35
2023-03-22T06:55:03.246Z,5.05
2023-03-22T06:55:50.162Z,5.50
2023-03-22T06:56:37.020Z,5.18
2023-03-22T06:57:23.852Z,5.28
2023-03-22T06:58:10.891Z,5.15
2023-03-22T06:58:58.726Z,5.40
2023-03-22T06:59:45.774Z,5.45
2023-03-22T07:00:34.485Z,5.57
2023-03-22T07:01:21.877Z,5.62
2023-03-22T07:02:12.026Z,5.40
2023-03-22T07:03:01.708Z,5.62
2023-03-22T07:03:48.647Z,5.22
2023-03-22T07:04:35.606Z,5.57
2023-03-22T07:05:22.578Z,6.20
2023-03-22T07:06:09.674Z,5.62
2023-03-22T07:06:57.149Z,6.22
2023-03-22T07:07:44.086Z,6.00
2023-03-22T07:08:31.317Z,6.40
2023-03-22T07:09:18.568Z,6.40
2023-03-22T07:10:10.019Z,6.93
2023-03-22T07:10:57.152Z,6.50
2023-03-22T07:11:44.011Z,6.28
2023-03-22T07:12:30.868Z,6.30
2023-03-22T07:13:17.934Z,6.18
2023-03-22T07:14:04.867Z,6.55
2023-03-22T07:14:51.815Z,6.62
2023-03-22T07:15:38.736Z,7.18
2023-03-22T07:16:25.943Z,6.70
2023-03-22T07:17:14.350Z,7.25
2023-03-22T07:18:02.180Z,6.28
2023-03-22T07:18:49.170Z,6.60
2023-03-22T07:19:36.284Z,7.25
2023-03-22T07:20:25.187Z,6.85
2023-03-22T07:21:12.475Z,6.80
2023-03-22T07:21:59.382Z,6.25
2023-03-22T07:22:46.711Z,6.97
2023-03-22T07:23:33.588Z,6.78
2023-03-22T07:24:20.546Z,6.60
2023-03-22T07:25:07.796Z,6.20
2023-03-22T07:25:56.275Z,6.60
2023-03-22T07:26:43.361Z,7.50
2023-03-22T07:27:30.237Z,6.50
2023-03-22T07:28:17.197Z,7.15
2023-03-22T07:29:04.077Z,6.55
2023-03-22T07:29:51.196Z,6.65
2023-03-22T07:30:39.051Z,6.53
2023-03-22T07:31:26.298Z,7.18
2023-03-22T07:32:13.266Z,7.20
2023-03-22T07:33:00.865Z,7.47
2023-03-22T07:33:48.595Z,6.95
2023-03-22T07:34:35.547Z,7.03
2023-03-22T07:35:24.496Z,6.95
2023-03-22T07:36:13.128Z,6.70
2023-03-22T07:37:02.100Z,6.93
2023-03-22T07:37:49.099Z,6.53
2023-03-22T07:38:36.181Z,6.78
2023-03-22T07:39:25.019Z,6.62
2023-03-22T07:40:12.660Z,6.70
2023-03-22T07:40:59.529Z,7.43
2023-03-22T07:41:46.534Z,6.12
2023-03-22T07:42:37.126Z,6.30
2023-03-22T07:43:24.222Z,6.55
2023-03-22T07:44:17.607Z,6.95
2023-03-22T07:45:05.504Z,6.30
2023-03-22T07:45:53.351Z,6.70
2023-03-22T07:46:40.352Z,7.78
2023-03-22T07:47:40.437Z,6.40
2023-03-22T07:48:29.027Z,6.85
2023-03-22T07:49:16.012Z,6.50
2023-03-22T07:50:02.985Z,6.57
2023-03-22T07:50:50.404Z,6.60
2023-03-22T07:51:37.235Z,7.05
2023-03-22T07:52:24.085Z,7.60
2023-03-22T07:53:11.566Z,6.28
2023-03-22T07:53:58.466Z,6.70
2023-03-22T07:54:45.556Z,6.32
2023-03-22T07:55:32.356Z,6.57
2023-03-22T07:56:19.210Z,6.22
2023-03-22T07:57:06.967Z,6.55
2023-03-22T07:57:58.030Z,6.30
2023-03-22T07:58:44.993Z,6.85
2023-03-22T07:59:32.242Z,6.15
2023-03-22T08:00:19.547Z,6.30
2023-03-22T08:01:09.246Z,6.28
2023-03-22T08:01:56.161Z,6.53
2023-03-22T08:02:46.050Z,6.50
2023-03-22T08:03:35.221Z,6.45
2023-03-22T08:04:22.762Z,6.37
2023-03-22T08:05:09.868Z,6.18
2023-03-22T08:06:01.377Z,6.10
2023-03-22T08:06:49.321Z,6.28
2023-03-22T08:07:36.472Z,6.40
2023-03-22T08:08:23.392Z,6.20
2023-03-22T08:09:12.333Z,6.30
2023-03-22T08:09:59.401Z,6.25
2023-03-22T08:10:49.829Z,6.18
2023-03-22T08:11:36.947Z,6.47
2023-03-22T08:12:23.925Z,5.60
2023-03-22T08:13:10.776Z,6.40
2023-03-22T08:13:57.686Z,6.60
2023-03-22T08:14:48.400Z,6.70
2023-03-22T08:16:24.573Z,6.20
2023-03-22T08:17:11.666Z,6.10
2023-03-22T08:17:58.634Z,6.50
2023-03-22T08:18:45.745Z,5.95
2023-03-22T08:19:34.006Z,6.47
2023-03-22T08:20:20.926Z,6.10
2023-03-22T08:21:08.057Z,6.28
2023-03-22T08:21:54.972Z,6.03
2023-03-22T08:22:42.634Z,6.32
2023-03-22T08:23:40.974Z,5.72
2023-03-22T08:24:28.563Z,6.10
2023-03-22T08:25:15.774Z,5.87
2023-03-22T08:26:02.859Z,6.53
2023-03-22T08:26:52.573Z,5.68
2023-03-22T08:27:39.592Z,5.82
2023-03-22T08:28:26.638Z,6.05
2023-03-22T08:29:13.515Z,5.95
2023-03-22T08:30:01.162Z,6.22
2023-03-22T08:30:48.886Z,5.57
2023-03-22T08:31:35.828Z,6.12
2023-03-22T08:32:22.688Z,5.97
2023-03-22T08:33:09.504Z,6.70
2023-03-22T08:33:56.424Z,5.87
2023-03-22T08:34:43.877Z,6.10
2023-03-22T08:35:32.908Z,5.60
2023-03-22T08:36:22.950Z,5.32
2023-03-22T08:37:11.242Z,5.60
2023-03-22T08:37:58.334Z,5.30
2023-03-22T08:38:45.574Z,5.62
2023-03-22T08:39:33.053Z,5.68
2023-03-22T08:40:20.125Z,6.37
2023-03-22T08:41:07.246Z,6.05
2023-03-22T08:41:54.115Z,6.03
2023-03-22T08:42:41.175Z,6.05
2023-03-22T08:43:28.096Z,6.15
2023-03-22T08:44:14.977Z,5.75
2023-03-22T08:45:01.923Z,6.32
2023-03-22T08:45:51.045Z,6.00
2023-03-22T08:46:37.935Z,6.45
2023-03-22T08:47:24.791Z,6.22
2023-03-22T08:48:11.779Z,6.00
2023-03-22T08:49:00.577Z,5.55
2023-03-22T08:49:47.432Z,5.97
2023-03-22T08:50:35.163Z,6.07
2023-03-22T08:51:23.199Z,5.70
2023-03-22T08:52:10.728Z,5.60
2023-03-22T08:52:58.265Z,5.62
2023-03-22T08:53:45.740Z,5.90
2023-03-22T08:54:37.550Z,5.68
2023-03-22T08:55:25.132Z,5.35
2023-03-22T08:56:15.136Z,5.32
2023-03-22T08:57:03.550Z,5.45
2023-03-22T08:57:50.775Z,5.50
2023-03-22T08:58:37.690Z,5.20
2023-03-22T08:59:24.605Z,5.60
2023-03-22T09:00:13.872Z,5.82
2023-03-22T09:01:00.920Z,4.90
2023-03-22T09:01:52.002Z,5.45
2023-03-22T09:02:38.902Z,5.70
2023-03-22T09:03:25.974Z,5.22
2023-03-22T09:04:12.873Z,5.70
2023-03-22T09:04:59.812Z,5.53
2023-03-22T09:05:46.954Z,5.62
2023-03-22T09:06:34.474Z,5.80
2023-03-22T09:07:21.677Z,5.50
2023-03-22T09:08:08.922Z,5.62
2023-03-22T09:08:56.389Z,4.97
2023-03-22T09:09:43.789Z,5.20
2023-03-22T09:10:30.732Z,4.90
2023-03-22T09:11:18.209Z,5.12
2023-03-22T09:12:05.476Z,5.80
2023-03-22T09:12:54.372Z,5.85
2023-03-22T09:13:41.254Z,5.55
2023-03-22T09:14:28.230Z,5.53
2023-03-22T09:15:15.232Z,5.57
2023-03-22T09:16:02.175Z,6.22
2023-03-22T09:16:49.152Z,5.20
2023-03-22T09:17:36.601Z,5.62
2023-03-22T09:18:28.664Z,5.40
2023-03-22T09:19:15.669Z,5.40
2023-03-22T09:20:12.149Z,5.68
2023-03-22T09:20:59.948Z,5.72
2023-03-22T09:21:46.771Z,5.32
2023-03-22T09:22:33.920Z,5.37
2023-03-22T09:23:21.011Z,5.12
2023-03-22T09:24:08.796Z,5.12
2023-03-22T09:24:55.711Z,5.07
2023-03-22T09:25:46.451Z,5.22
2023-03-22T09:26:33.247Z,4.97
2023-03-22T09:27:20.132Z,5.28
2023-03-22T09:28:07.167Z,4.35
2023-03-22T09:28:56.221Z,5.15
2023-03-22T09:29:43.130Z,4.87
2023-03-22T09:30:30.562Z,5.32
2023-03-22T09:31:20.350Z,5.18
2023-03-22T09:32:07.509Z,5.40
2023-03-22T09:32:54.998Z,4.90
2023-03-22T09:33:42.404Z,5.07
2023-03-22T09:34:29.544Z,4.70
2023-03-22T09:35:16.770Z,5.05
2023-03-22T09:36:04.274Z,5.28
2023-03-22T09:36:53.002Z,4.95
2023-03-22T09:37:39.948Z,5.00
2023-03-22T09:38:27.476Z,5.05
2023-03-22T09:39:16.643Z,4.78
2023-03-22T09:40:06.031Z,5.15
2023-03-22T09:41:01.808Z,5.40
2023-03-22T09:42:01.359Z,4.82
2023-03-22T09:42:53.009Z,5.50
2023-03-22T09:43:42.851Z,5.53
2023-03-22T09:44:29.696Z,4.80
2023-03-22T09:45:27.282Z,5.40
2023-03-22T09:46:17.566Z,6.10
2023-03-22T09:47:05.933Z,5.12
2023-03-22T09:47:54.960Z,4.65
2023-03-22T09:48:43.227Z,5.00
2023-03-22T09:49:47.214Z,5.03
2023-03-22T09:50:45.479Z,4.87
2023-03-22T09:51:48.477Z,5.10
2023-03-22T09:52:35.483Z,5.18
2023-03-22T09:53:24.736Z,5.03
2023-03-22T09:54:25.429Z,4.97
2023-03-22T09:56:28.110Z,5.03
2023-03-22T09:57:37.476Z,4.87
2023-03-22T09:58:51.147Z,4.95
2023-03-22T09:59:46.886Z,5.20
2023-03-22T10:01:28.869Z,4.82
2023-03-22T10:02:44.402Z,4.93
2023-03-22T10:04:02.442Z,5.37
2023-03-22T10:05:18.597Z,5.30
2023-03-22T10:06:06.166Z,5.45
2023-03-22T10:07:04.390Z,4.95
2023-03-22T10:08:12.730Z,5.03
2023-03-22T10:09:11.179Z,5.12
2023-03-22T10:10:08.900Z,4.68
2023-03-22T10:10:57.929Z,4.68
2023-03-22T10:11:47.485Z,4.35
2023-03-22T10:12:56.577Z,4.62
2023-03-22T10:13:56.605Z,4.95
2023-03-22T10:14:53.350Z,4.85
2023-03-22T10:15:56.095Z,4.97
2023-03-22T10:16:43.698Z,4.60
2023-03-22T10:17:30.968Z,5.00
2023-03-22T10:18:26.731Z,4.68
2023-03-22T10:19:35.923Z,4.90
2023-03-22T10:20:49.937Z,4.65
2023-03-22T10:21:36.959Z,5.22
2023-03-22T10:22:31.610Z,4.85
2023-03-22T10:23:35.444Z,4.70
2023-03-22T10:24:30.284Z,5.62
2023-03-22T10:25:22.625Z,4.57
2023-03-22T10:26:17.842Z,5.00
2023-03-22T10:27:13.901Z,4.75
2023-03-22T10:28:00.918Z,4.80
2023-03-22T10:28:53.597Z,4.68
2023-03-22T10:29:43.950Z,4.70
2023-03-22T10:30:34.992Z,4.80
2023-03-22T10:31:22.345Z,4.68
2023-03-22T10:32:56.436Z,4.75
2023-03-22T10:33:53.428Z,4.43
2023-03-22T10:34:40.483Z,4.70
2023-03-22T10:35:28.039Z,4.65
2023-03-22T10:36:16.716Z,4.28
2023-03-22T10:37:04.608Z,4.65
2023-03-22T10:37:52.192Z,4.70
2023-03-22T10:38:48.915Z,4.40
2023-03-22T10:39:40.089Z,4.30
2023-03-22T10:40:29.909Z,4.90
2023-03-22T10:41:18.759Z,5.07
2023-03-22T10:42:16.379Z,4.57
2023-03-22T10:43:06.619Z,4.65
2023-03-22T10:43:59.229Z,4.60
2023-03-22T10:44:51.748Z,4.47
2023-03-22T10:45:40.358Z,4.53
2023-03-22T10:46:36.313Z,4.45
2023-03-22T10:47:48.907Z,4.62
2023-03-22T10:48:39.858Z,4.30
2023-03-22T10:49:34.227Z,4.53
2023-03-22T10:50:33.027Z,4.50
2023-03-22T10:52:02.153Z,4.70
2023-03-22T10:53:08.740Z,4.72
2023-03-22T10:53:58.469Z,4.75
2023-03-22T10:54:45.562Z,4.07
2023-03-22T10:55:32.750Z,4.43
2023-03-22T10:56:21.532Z,4.70
2023-03-22T10:57:10.752Z,4.45
2023-03-22T10:58:19.156Z,4.78
2023-03-22T10:59:06.333Z,5.00
2023-03-22T10:59:57.136Z,4.80
2023-03-22T11:00:49.601Z,5.25
2023-03-22T11:01:38.118Z,4.30
2023-03-22T11:02:30.800Z,4.70
2023-03-22T11:03:45.443Z,4.70
2023-03-22T11:04:32.393Z,4.20
2023-03-22T11:05:23.211Z,4.55
2023-03-22T11:06:20.165Z,4.60
2023-03-22T11:07:13.986Z,5.03
2023-03-22T11:08:02.868Z,4.68
2023-03-22T11:09:14.444Z,4.87
2023-03-22T11:10:10.500Z,4.80
2023-03-22T11:11:00.578Z,4.53
2023-03-22T11:11:54.542Z,4.78
2023-03-22T11:12:46.680Z,4.43
2023-03-22T11:13:35.092Z,4.65
2023-03-22T11:14:35.811Z,5.07
2023-03-22T11:15:27.633Z,4.68